Time;durP1;ratioP1;P1;durP2;ratioP2;P2;SDS_P1;SDS_P2;PMS_P1;PMS_P2;Temp;Humidity;BMP_temperature;BMP_pressure;BME280_temperature;BME280_humidity;BME280_pressure;Samples;Min_cycle;Max_cycle;Signal;HPM_P1;HPM_P2
2022/02/12 00:00:13;;;;;;;;;;;;;;;2.98;69.04;101311.66;4917823;29;19970;-84
2022/02/12 00:02:39;;;;;;;;;;;;;;;2.99;69.14;101308.19;4917635;29;19923;-84
2022/02/12 00:05:04;;;;;;;;;;;;;;;3.05;69.16;101305.66;4918514;29;19993;-84
2022/02/12 00:07:30;;;;;;;;;;;;;;;3.03;69.03;101303.88;4934979;29;19926;-84
2022/02/12 00:09:55;;;;;;;;;;;;;;;2.98;68.86;101311.66;4935215;29;19922;-84
2022/02/12 00:12:20;;;;;;;;;;;;;;;3.00;68.87;101304.75;4935108;29;20433;-84
2022/02/12 00:14:45;;;;;;;;;;;;;;;3.01;68.69;101301.25;4935208;29;19923;-84
2022/02/12 00:17:11;;;;;;;;;;;;;;;3.01;68.74;101316.09;4917410;29;19923;-84
2022/02/12 00:19:36;;;;;;;;;;;;;;;3.03;68.68;101312.63;4918681;29;19923;-84
2022/02/12 00:22:01;;;;;;;;;;;;;;;3.04;68.62;101311.75;4934681;29;19934;-85
2022/02/12 00:24:26;;;;;;;;;;;;;;;3.04;68.62;101306.50;4935922;29;19919;-83
2022/02/12 00:26:52;;;;;;;;;;;;;;;3.09;68.73;101302.25;4933731;29;20371;-85
2022/02/12 00:29:17;;;;;;;;;;;;;;;3.09;68.37;101306.56;4916995;29;19930;-85
2022/02/12 00:31:42;;;;;;;;;;;;;;;3.07;68.29;101308.31;4935361;29;20394;-84
2022/02/12 00:34:07;;;;;;;;;;;;;;;3.07;68.29;101300.44;4917241;29;19919;-84
2022/02/12 00:36:33;;;;;;;;;;;;;;;3.10;68.31;101297.88;4917224;29;20502;-84
2022/02/12 00:38:58;;;;;;;;;;;;;;;3.09;68.24;101302.25;4935272;29;19923;-83
2022/02/12 00:41:23;;;;;;;;;;;;;;;3.11;68.34;101296.13;4918135;29;19966;-85
2022/02/12 00:43:48;;;;;;;;;;;;;;;3.11;68.22;101291.75;4934688;29;19927;-85
2022/02/12 00:46:14;;;;;;;;;;;;;;;3.10;68.16;101290.00;4918372;29;20385;-86
2022/02/12 00:48:39;;;;;;;;;;;;;;;3.18;68.21;101284.88;4919372;29;20009;-85
2022/02/12 00:51:04;;;;;;;;;;;;;;;3.25;68.76;101279.69;4934250;29;19930;-85
2022/02/12 00:53:29;;;;;;;;;;;;;;;3.50;70.82;101273.84;4931252;29;19919;-86
2022/02/12 00:55:55;;;;;;;;;;;;;;;3.66;73.29;101270.50;4933647;29;19930;-84
2022/02/12 00:58:20;;;;;;;;;;;;;;;3.71;75.35;101268.78;4933926;29;19925;-85
2022/02/12 01:00:46;;;;;;;;;;;;;;;3.74;77.15;101273.19;4933861;29;20347;-85
2022/02/12 01:03:11;;;;;;;;;;;;;;;3.71;78.71;101268.78;4934118;29;19950;-85
2022/02/12 01:05:37;;;;;;;;;;;;;;;3.71;80.43;101260.94;4930097;29;19919;-85
2022/02/12 01:08:03;;;;;;;;;;;;;;;3.77;83.66;101262.72;4932907;29;20290;-84
2022/02/12 01:10:29;;;;;;;;;;;;;;;3.70;85.59;101272.28;4934129;29;19918;-86
2022/02/12 01:12:55;;;;;;;;;;;;;;;3.63;87.12;101266.09;4933201;29;19931;-85
2022/02/12 01:15:20;;;;;;;;;;;;;;;3.64;88.43;101262.63;4933383;29;21519;-85
2022/02/12 01:17:46;;;;;;;;;;;;;;;3.66;89.19;101259.16;4931845;29;19922;-84
2022/02/12 01:20:11;;;;;;;;;;;;;;;3.58;90.18;101259.94;4934780;29;19923;-85
2022/02/12 01:22:37;;;;;;;;;;;;;;;3.56;91.61;101259.06;4929642;29;19974;-85
2022/02/12 01:25:02;;;;;;;;;;;;;;;3.59;93.01;101259.09;4933004;29;19930;-85
2022/02/12 01:27:28;;;;;;;;;;;;;;;3.80;94.38;101265.38;4933645;29;19927;-84
2022/02/12 01:29:53;;;;;;;;;;;;;;;3.91;96.25;101250.63;4933208;29;19918;-85
2022/02/12 01:32:19;;;;;;;;;;;;;;;4.15;98.41;101249.91;4931748;29;19937;-85
2022/02/12 01:34:44;;;;;;;;;;;;;;;4.32;100.00;101251.75;4933605;29;20322;-86
2022/02/12 01:37:10;;;;;;;;;;;;;;;4.42;100.00;101248.34;4932839;29;20255;-85
2022/02/12 01:39:36;;;;;;;;;;;;;;;4.50;100.00;101246.63;4934684;29;19922;-85
2022/02/12 01:42:01;;;;;;;;;;;;;;;4.60;100.00;101244.06;4933579;29;19934;-85
2022/02/12 04:10:48;;;;;;;;;;;;;;;3.95;96.83;101099.41;5765371;23;19993;-83
2022/02/12 04:13:14;;;;;;;;;;;;;;;3.82;96.22;101094.06;4944066;28;19973;-81
2022/02/12 04:15:39;;;;;;;;;;;;;;;3.82;95.83;101098.44;4965555;28;19954;-82
2022/02/12 04:18:07;;;;;;;;;;;;;;;3.67;95.24;101093.09;4965160;28;20333;-82
2022/02/12 04:20:33;;;;;;;;;;;;;;;3.54;95.09;101092.16;4947546;28;19918;-82
2022/02/12 04:22:58;;;;;;;;;;;;;;;3.65;94.69;101080.00;4948130;28;20021;-82
2022/02/12 04:25:23;;;;;;;;;;;;;;;3.56;94.40;101085.19;4946415;28;19925;-83
2022/02/12 04:27:49;;;;;;;;;;;;;;;3.57;93.79;101079.94;4964576;28;19933;-82
2022/02/12 04:30:14;;;;;;;;;;;;;;;3.48;93.07;101086.84;4965519;28;20393;-82
2022/02/12 04:32:40;;;;;;;;;;;;;;;3.44;92.36;101080.72;4964077;28;19918;-83
2022/02/12 04:35:07;;;;;;;;;;;;;;;3.30;92.19;101087.59;4964845;28;20012;-83
2022/02/12 04:37:33;;;;;;;;;;;;;;;3.43;92.95;101084.19;4947633;28;19922;-82
2022/02/12 04:39:59;;;;;;;;;;;;;;;3.50;93.55;101072.03;4963035;28;19923;-81
2022/02/12 04:42:24;;;;;;;;;;;;;;;3.46;93.42;101068.50;4964492;28;19919;-82
2022/02/12 04:44:51;;;;;;;;;;;;;;;3.40;93.29;101073.72;4965142;28;19924;-82
2022/02/12 04:47:17;;;;;;;;;;;;;;;3.29;93.00;101073.66;4964414;28;20436;-82
2022/02/12 04:49:42;;;;;;;;;;;;;;;3.28;92.80;101077.13;4964180;28;20461;-83
2022/02/12 04:52:09;;;;;;;;;;;;;;;3.32;92.87;101083.25;4964303;28;20005;-84
2022/02/12 04:54:34;;;;;;;;;;;;;;;3.27;92.66;101077.97;4963816;28;19945;-83
2022/02/12 04:57:00;;;;;;;;;;;;;;;3.20;92.13;101077.06;4963839;28;19962;-84
2022/02/12 04:59:25;;;;;;;;;;;;;;;3.21;91.90;101077.97;4964714;28;19977;-84
2022/02/12 05:01:51;;;;;;;;;;;;;;;3.17;91.23;101074.41;4964107;28;19923;-84
2022/02/12 05:04:16;;;;;;;;;;;;;;;3.11;91.30;101073.50;4964056;28;20501;-84
2022/02/12 05:06:42;;;;;;;;;;;;;;;3.07;91.03;101067.34;4963124;28;20362;-83
2022/02/12 05:09:07;;;;;;;;;;;;;;;2.99;90.57;101072.53;4963957;28;19918;-84
2022/02/12 05:11:32;;;;;;;;;;;;;;;3.02;90.14;101072.56;4944604;28;20358;-83
2022/02/12 05:13:57;;;;;;;;;;;;;;;3.02;89.84;101067.31;4964180;28;19925;-83
2022/02/12 05:16:23;;;;;;;;;;;;;;;2.96;89.59;101064.63;4964356;28;19961;-83
2022/02/12 05:18:48;;;;;;;;;;;;;;;2.87;89.20;101064.56;4946902;28;19930;-83
2022/02/12 05:21:13;;;;;;;;;;;;;;;2.95;89.08;101060.25;4963521;28;19973;-83
2022/02/12 05:23:38;;;;;;;;;;;;;;;2.94;89.06;101053.28;4946442;28;19968;-83
2022/02/12 05:26:04;;;;;;;;;;;;;;;2.82;88.42;101046.19;4945529;28;20005;-83
2022/02/12 05:28:29;;;;;;;;;;;;;;;2.83;88.46;101041.84;4963838;28;19919;-83
2022/02/12 05:30:54;;;;;;;;;;;;;;;2.78;88.01;101048.78;4963885;28;20017;-83
2022/02/12 05:33:20;;;;;;;;;;;;;;;2.80;88.05;101032.22;4963604;28;19925;-83
2022/02/12 05:35:45;;;;;;;;;;;;;;;2.76;87.35;101038.28;4964181;28;19922;-84
2022/02/12 05:38:11;;;;;;;;;;;;;;;2.76;87.33;101029.53;4963369;28;20281;-83
2022/02/12 05:40:36;;;;;;;;;;;;;;;2.61;86.91;101023.31;4944123;28;19928;-84
2022/02/12 05:43:02;;;;;;;;;;;;;;;2.63;86.90;101019.00;4963780;28;19925;-84
2022/02/12 05:45:27;;;;;;;;;;;;;;;2.68;86.48;101013.75;4963854;28;20053;-84
2022/02/12 08:32:13;;;;;;;;;;;;;;;1.69;79.18;100983.06;5514415;23;19938;-83
2022/02/12 08:34:40;;;;;;;;;;;;;;;1.67;79.28;100988.28;4963964;28;20376;-85
2022/02/12 08:37:06;;;;;;;;;;;;;;;1.60;79.54;100987.31;4964645;28;20024;-84
2022/02/12 08:39:31;;;;;;;;;;;;;;;1.69;79.88;100986.59;4964599;28;20385;-84
2022/02/12 08:41:56;;;;;;;;;;;;;;;1.67;79.96;100982.19;4964803;28;19919;-84
2022/02/12 08:44:22;;;;;;;;;;;;;;;1.67;79.78;100982.19;4964330;28;19929;-83
2022/02/12 08:46:47;;;;;;;;;;;;;;;1.55;79.88;100983.78;4963836;28;20301;-85
2022/02/12 08:49:14;;;;;;;;;;;;;;;1.67;79.64;100982.19;4964428;28;20008;-84
2022/02/12 08:51:40;;;;;;;;;;;;;;;1.62;79.31;100984.72;4946288;28;19919;-86
2022/02/12 08:54:06;;;;;;;;;;;;;;;1.57;79.33;100979.44;4964335;28;19981;-85
2022/02/12 08:56:32;;;;;;;;;;;;;;;1.57;78.96;100971.59;4964270;28;19993;-84
2022/02/12 08:58:57;;;;;;;;;;;;;;;1.56;79.02;100969.84;4964400;28;19918;-83
2022/02/12 09:01:22;;;;;;;;;;;;;;;1.65;78.76;100973.47;4961991;28;19926;-84
2022/02/12 09:03:47;;;;;;;;;;;;;;;1.67;78.84;100972.59;4963631;28;19919;-83
2022/02/12 09:06:13;;;;;;;;;;;;;;;1.63;78.77;100971.69;4964240;28;19922;-84
2022/02/12 09:08:38;;;;;;;;;;;;;;;1.70;78.36;100970.03;4964062;28;19918;-84
2022/02/12 09:11:03;;;;;;;;;;;;;;;1.61;78.29;100960.34;4964063;28;19966;-84
2022/02/12 09:13:29;;;;;;;;;;;;;;;1.59;78.46;100963.78;4963962;28;20266;-84
2022/02/12 09:15:55;;;;;;;;;;;;;;;1.61;78.39;100959.44;4962447;28;19925;-84
2022/02/12 09:18:20;;;;;;;;;;;;;;;1.56;78.48;100958.53;4962934;28;19922;-85
2022/02/12 09:20:46;;;;;;;;;;;;;;;1.59;78.49;100956.81;4964062;28;19918;-83
2022/02/12 09:23:12;;;;;;;;;;;;;;;1.65;78.29;100949.94;4964391;28;20463;-85
2022/02/12 09:25:37;;;;;;;;;;;;;;;1.61;78.17;100944.66;4963776;28;19919;-88
2022/02/12 09:28:03;;;;;;;;;;;;;;;1.59;78.09;100943.75;4946224;28;19937;-85
2022/02/12 09:30:28;;;;;;;;;;;;;;;1.62;78.07;100943.78;4946435;28;19933;-85
2022/02/12 09:32:53;;;;;;;;;;;;;;;1.62;77.86;100951.63;4962958;28;20287;-85
2022/02/12 09:35:19;;;;;;;;;;;;;;;1.64;77.85;100943.81;4963568;28;19926;-89
2022/02/12 09:37:45;;;;;;;;;;;;;;;1.62;77.88;100941.19;4946327;28;19918;-85
2022/02/12 09:40:11;;;;;;;;;;;;;;;1.67;77.68;100945.59;4944473;28;20333;-86
2022/02/12 09:42:37;;;;;;;;;;;;;;;1.69;77.90;100941.25;4946455;28;19922;-85
2022/02/12 09:45:04;;;;;;;;;;;;;;;1.67;77.83;100937.75;4945201;28;19966;-88
2022/02/12 09:47:48;;;;;;;;;;;;;;;1.65;77.61;100939.50;4962264;28;19918;-86
2022/02/12 09:50:17;;;;;;;;;;;;;;;1.67;77.44;100929.91;4946034;28;19973;-86
2022/02/12 09:52:45;;;;;;;;;;;;;;;1.63;77.25;100932.50;4962410;28;20281;-86
2022/02/12 09:55:11;;;;;;;;;;;;;;;1.68;77.17;100926.47;4963386;28;19922;-88
2022/02/12 09:57:37;;;;;;;;;;;;;;;1.69;77.15;100920.34;4962905;28;20291;-90
2022/02/12 10:00:05;;;;;;;;;;;;;;;1.70;76.99;100920.38;4963831;28;19918;-88
2022/02/12 10:02:31;;;;;;;;;;;;;;;1.68;76.94;100913.41;4962005;28;19923;-89
2022/02/12 10:05:19;;;;;;;;;;;;;;;1.73;76.88;100906.47;4963301;28;20420;-89
2022/02/12 10:07:45;;;;;;;;;;;;;;;1.76;76.80;100907.38;4963312;28;19973;-85
2022/02/12 10:10:14;;;;;;;;;;;;;;;1.72;76.62;100902.97;4946065;28;19969;-85
2022/02/12 10:12:39;;;;;;;;;;;;;;;1.73;76.55;100903.88;4946584;28;19930;-88
2022/02/12 10:15:05;;;;;;;;;;;;;;;1.73;76.29;100903.88;4945641;28;19918;-91
2022/02/12 10:17:30;;;;;;;;;;;;;;;1.72;76.35;100896.88;4962952;28;20016;-87
2022/02/12 10:19:55;;;;;;;;;;;;;;;1.77;76.06;100900.41;4963164;28;19925;-89
2022/02/12 10:22:21;;;;;;;;;;;;;;;1.77;75.82;100887.34;4946032;28;19985;-87
2022/02/12 10:24:46;;;;;;;;;;;;;;;1.78;75.91;100895.19;4963419;28;19919;-90
2022/02/12 10:27:12;;;;;;;;;;;;;;;1.79;75.73;100894.34;4967509;28;19919;-88
2022/02/12 10:29:37;;;;;;;;;;;;;;;1.83;75.82;100894.38;4967561;28;19938;-92
2022/02/12 10:32:02;;;;;;;;;;;;;;;1.83;75.85;100897.88;4965721;28;20404;-86
2022/02/12 10:34:42;;;;;;;;;;;;;;;1.89;75.88;100889.22;4966820;28;20013;-85
2022/02/12 10:37:08;;;;;;;;;;;;;;;1.88;75.98;100883.09;4966104;28;19968;-92
2022/02/12 10:39:37;;;;;;;;;;;;;;;1.89;75.84;100873.53;4949752;28;20013;-90
2022/02/12 10:42:06;;;;;;;;;;;;;;;1.92;75.83;100863.97;4967531;28;19941;-89
2022/02/12 10:44:32;;;;;;;;;;;;;;;1.90;75.76;100868.31;4949404;28;19922;-85
2022/02/12 10:46:57;;;;;;;;;;;;;;;1.94;75.81;100864.88;4947385;28;20006;-90
2022/02/12 10:49:23;;;;;;;;;;;;;;;1.92;75.36;100871.81;4949297;28;19925;-86
2022/02/12 10:51:51;;;;;;;;;;;;;;;1.97;75.32;100861.41;4949730;28;19923;-87
2022/02/12 10:54:19;;;;;;;;;;;;;;;1.96;75.21;100860.56;4966919;28;19958;-82
2022/02/12 10:56:52;;;;;;;;;;;;;;;1.96;74.90;100857.94;4966061;28;19925;-91
2022/02/12 10:59:21;;;;;;;;;;;;;;;1.97;74.98;100862.28;4949972;28;20279;-89
2022/02/12 11:01:50;;;;;;;;;;;;;;;1.98;74.68;100853.59;4964833;28;19965;-89
2022/02/12 11:04:16;;;;;;;;;;;;;;;1.99;74.65;100844.91;4948990;28;20390;-89
2022/02/12 11:06:43;;;;;;;;;;;;;;;2.04;74.49;100842.28;4949678;28;19925;-82
2022/02/12 11:09:08;;;;;;;;;;;;;;;2.04;74.33;100841.44;4965586;28;19966;-83
2022/02/12 11:11:34;;;;;;;;;;;;;;;2.08;74.36;100831.00;4966112;28;19914;-80
2022/02/12 11:13:59;;;;;;;;;;;;;;;2.05;74.01;100827.50;4966817;28;19961;-90
2022/02/12 11:16:28;;;;;;;;;;;;;;;2.04;74.05;100816.16;4964805;28;19919;-80
2022/02/12 11:18:54;;;;;;;;;;;;;;;2.05;74.08;100810.06;4965992;28;20035;-81
2022/02/12 11:21:20;;;;;;;;;;;;;;;2.09;74.03;100813.56;4964911;28;20358;-83
2022/02/12 11:24:01;;;;;;;;;;;;;;;2.08;73.73;100793.53;4948786;28;19922;-88
2022/02/12 11:26:27;;;;;;;;;;;;;;;2.10;73.63;100797.91;4966013;28;19996;-80
2022/02/12 11:28:52;;;;;;;;;;;;;;;2.13;73.71;100795.31;4966081;28;20076;-80
2022/02/12 11:31:23;;;;;;;;;;;;;;;2.18;73.79;100784.88;4964605;28;19925;-90
2022/02/12 11:34:03;;;;;;;;;;;;;;;2.21;73.67;100782.31;4948790;28;20366;-81
2022/02/12 11:36:29;;;;;;;;;;;;;;;2.19;73.59;100778.81;4965741;28;20349;-80
2022/02/12 11:39:23;;;;;;;;;;;;;;;2.19;73.37;100773.56;4965509;28;19945;-87
2022/02/12 11:41:54;;;;;;;;;;;;;;;2.23;73.24;100764.88;4950384;28;19918;-89
2022/02/12 11:44:41;;;;;;;;;;;;;;;2.22;73.05;100757.00;4948463;28;19974;-81
2022/02/12 11:47:07;;;;;;;;;;;;;;;2.25;73.10;100755.31;4964412;28;19950;-81
2022/02/12 11:49:37;;;;;;;;;;;;;;;2.27;73.11;100750.09;4948834;28;20348;-80
2022/02/12 11:52:22;;;;;;;;;;;;;;;2.26;73.05;100738.75;4964566;28;19923;-80
2022/02/12 11:54:49;;;;;;;;;;;;;;;2.27;72.76;100734.41;4946841;28;19926;-84
2022/02/12 11:57:16;;;;;;;;;;;;;;;2.33;72.97;100724.84;4948563;28;19946;-79
2022/02/12 11:59:41;;;;;;;;;;;;;;;2.28;72.68;100723.06;4965348;28;19929;-85
2022/02/12 12:02:06;;;;;;;;;;;;;;;2.29;72.49;100723.06;4943188;28;19922;-80
2022/02/12 12:04:33;;;;;;;;;;;;;;;2.30;72.42;100724.84;4965614;28;20270;-81
2022/02/12 12:07:13;;;;;;;;;;;;;;;2.31;72.22;100721.34;4963352;28;19934;-81
2022/02/12 12:09:38;;;;;;;;;;;;;;;2.31;72.15;100710.00;4963287;28;19933;-83
2022/02/12 12:12:12;;;;;;;;;;;;;;;2.32;71.90;100704.78;4959450;28;19937;-82
2022/02/12 12:14:37;;;;;;;;;;;;;;;2.30;71.82;100703.91;4962812;28;19928;-82
2022/02/12 12:17:03;;;;;;;;;;;;;;;2.32;71.85;100706.53;4964198;28;19915;-82
2022/02/12 12:19:32;;;;;;;;;;;;;;;2.36;71.86;100703.94;4962989;28;19930;-82
2022/02/12 12:21:59;;;;;;;;;;;;;;;2.45;72.20;100692.63;4963769;28;19958;-82
2022/02/12 12:24:24;;;;;;;;;;;;;;;2.39;72.07;100694.34;4945068;28;19922;-81
2022/02/12 12:26:50;;;;;;;;;;;;;;;2.42;71.81;100683.91;4961303;28;19954;-82
2022/02/12 12:32:01;;;;;;;;;;;;;;;2.44;71.64;100682.16;4963560;28;19973;-82
2022/02/12 12:34:26;;;;;;;;;;;;;;;2.44;71.43;100677.81;4965346;28;20298;-82
2022/02/12 12:36:53;;;;;;;;;;;;;;;2.47;71.48;100680.47;4964476;28;19923;-82
2022/02/12 12:39:19;;;;;;;;;;;;;;;2.45;71.18;100671.72;4964593;28;20030;-82
2022/02/12 12:41:45;;;;;;;;;;;;;;;2.45;70.95;100670.84;4947533;28;20335;-82
2022/02/12 12:44:14;;;;;;;;;;;;;;;2.49;70.87;100662.13;4964915;28;20010;-82
2022/02/12 12:46:41;;;;;;;;;;;;;;;2.51;70.92;100663.03;4962811;28;19920;-82
2022/02/12 12:49:07;;;;;;;;;;;;;;;2.53;71.03;100659.53;4946386;28;19989;-82
2022/02/12 12:51:33;;;;;;;;;;;;;;;2.78;72.77;100651.78;4947047;28;19915;-82
2022/02/12 12:54:00;;;;;;;;;;;;;;;3.05;75.79;100640.50;4964123;28;19918;-82
2022/02/12 12:56:26;;;;;;;;;;;;;;;3.15;78.19;100632.66;4947531;28;19918;-81
2022/02/12 12:59:01;;;;;;;;;;;;;;;3.20;80.20;100637.00;4964662;28;20377;-81
2022/02/12 13:01:26;;;;;;;;;;;;;;;3.20;81.93;100620.44;4963491;28;19918;-82
2022/02/12 13:03:51;;;;;;;;;;;;;;;3.19;83.61;100623.91;4964390;28;20408;-82
2022/02/12 13:06:16;;;;;;;;;;;;;;;3.15;84.81;100619.56;4964242;28;20393;-82
2022/02/12 13:08:42;;;;;;;;;;;;;;;3.11;86.11;100625.66;4963993;28;20263;-82
2022/02/12 13:11:09;;;;;;;;;;;;;;;3.07;87.19;100616.91;4964593;28;20000;-82
2022/02/12 13:13:35;;;;;;;;;;;;;;;3.02;88.26;100611.69;4964054;28;19918;-81
2022/02/12 13:16:01;;;;;;;;;;;;;;;3.01;89.49;100611.66;4962625;28;19929;-81
2022/02/12 13:18:36;;;;;;;;;;;;;;;3.02;90.79;100619.53;4946834;28;20378;-82
2022/02/12 13:21:14;;;;;;;;;;;;;;;3.05;92.15;100608.19;4963569;28;19922;-82
2022/02/12 13:23:46;;;;;;;;;;;;;;;3.12;93.40;100607.31;4963758;28;19918;-81
2022/02/12 13:26:19;;;;;;;;;;;;;;;3.37;94.49;100604.72;4963377;28;19941;-81
2022/02/12 13:28:49;;;;;;;;;;;;;;;3.58;96.60;100602.06;4964158;28;19922;-81
2022/02/12 13:31:15;;;;;;;;;;;;;;;3.79;98.98;100595.03;4962408;28;19972;-81
2022/02/12 13:33:40;;;;;;;;;;;;;;;3.92;100.00;100590.63;4964048;28;20367;-81
2022/02/12 13:36:05;;;;;;;;;;;;;;;4.06;100.00;100585.38;4963744;28;19922;-81
2022/02/12 13:38:33;;;;;;;;;;;;;;;4.09;100.00;100580.97;4963286;28;19926;-82
2022/02/12 13:40:58;;;;;;;;;;;;;;;4.21;100.00;100587.91;4963601;28;19966;-82
2022/02/12 13:43:28;;;;;;;;;;;;;;;4.24;100.00;100581.78;4963620;28;19922;-82
2022/02/12 13:45:56;;;;;;;;;;;;;;;4.30;100.00;100581.75;4945714;28;19930;-82
2022/02/12 13:48:24;;;;;;;;;;;;;;;4.37;100.00;100572.97;4962138;28;20362;-82
2022/02/12 13:50:50;;;;;;;;;;;;;;;4.43;100.00;100572.09;4963820;28;19926;-81
2022/02/12 13:53:23;;;;;;;;;;;;;;;4.47;100.00;100563.31;4963556;28;19922;-82
2022/02/12 13:55:50;;;;;;;;;;;;;;;4.51;100.00;100568.53;4963662;28;20361;-82
2022/02/12 13:58:15;;;;;;;;;;;;;;;4.61;100.00;100571.09;4963630;28;19918;-82
2022/02/12 14:00:41;;;;;;;;;;;;;;;4.62;100.00;100565.84;4962663;28;19946;-82
2022/02/12 14:03:06;;;;;;;;;;;;;;;4.66;100.00;100561.44;4962137;28;19926;-82
2022/02/12 14:05:32;;;;;;;;;;;;;;;4.70;100.00;100555.31;4963800;28;19918;-82
2022/02/12 14:07:58;;;;;;;;;;;;;;;4.75;100.00;100553.50;4963188;28;20325;-82
2022/02/12 14:10:26;;;;;;;;;;;;;;;4.79;100.00;100549.13;4963113;28;19919;-82
2022/02/12 14:12:55;;;;;;;;;;;;;;;4.84;100.00;100552.59;4961947;28;19934;-82
2022/02/12 14:15:21;;;;;;;;;;;;;;;4.87;100.00;100545.56;4963546;28;19972;-82
2022/02/12 14:17:46;;;;;;;;;;;;;;;4.88;100.00;100546.41;4962121;28;19953;-82
2022/02/12 14:20:11;;;;;;;;;;;;;;;4.97;100.00;100540.22;4963078;28;19919;-82
2022/02/12 14:22:37;;;;;;;;;;;;;;;4.99;100.00;100538.47;4962944;28;19945;-82
2022/02/12 14:25:03;;;;;;;;;;;;;;;4.93;100.00;100531.53;4963513;28;19922;-82
2022/02/12 14:27:29;;;;;;;;;;;;;;;4.16;100.00;100543.38;4963253;28;19977;-82
2022/02/12 14:29:54;;;;;;;;;;;;;;;3.77;100.00;100533.88;4962705;28;20285;-82
2022/02/12 14:32:21;;;;;;;;;;;;;;;3.61;100.00;100535.69;4961460;28;19957;-82
2022/02/12 14:34:46;;;;;;;;;;;;;;;3.50;100.00;100534.84;4946057;28;19923;-82
2022/02/12 14:37:11;;;;;;;;;;;;;;;3.41;99.36;100535.72;4963085;28;19941;-82
2022/02/12 14:39:36;;;;;;;;;;;;;;;3.34;97.71;100534.84;4963788;28;19922;-81
2022/02/12 14:42:02;;;;;;;;;;;;;;;3.24;96.36;100531.38;4962518;28;20262;-82
2022/02/12 14:44:27;;;;;;;;;;;;;;;3.15;95.09;100527.88;4963224;28;19929;-82
2022/02/12 14:46:52;;;;;;;;;;;;;;;3.18;94.06;100530.50;4961879;28;19915;-82
2022/02/12 14:49:18;;;;;;;;;;;;;;;3.11;93.18;100518.28;4962958;28;19926;-81
2022/02/12 14:51:43;;;;;;;;;;;;;;;2.96;92.26;100519.16;4945938;28;20365;-82
2022/02/12 14:54:09;;;;;;;;;;;;;;;3.02;91.67;100512.19;4963118;28;19922;-81
2022/02/12 14:56:39;;;;;;;;;;;;;;;2.89;90.58;100508.69;4961785;28;20002;-81
2022/02/12 14:59:04;;;;;;;;;;;;;;;2.94;90.09;100502.59;4963257;28;19983;-82
2022/02/12 15:01:30;;;;;;;;;;;;;;;2.90;89.27;100494.75;4961882;28;19965;-81
2022/02/12 15:03:56;;;;;;;;;;;;;;;2.90;88.69;100499.09;4962649;28;19997;-82
2022/02/12 15:06:21;;;;;;;;;;;;;;;2.89;87.80;100494.75;4945474;28;19933;-81
2022/02/12 15:08:47;;;;;;;;;;;;;;;2.84;87.22;100491.22;4963290;28;19918;-82
2022/02/12 15:11:13;;;;;;;;;;;;;;;2.68;86.69;100485.13;4962625;28;19919;-81
2022/02/12 15:13:38;;;;;;;;;;;;;;;2.67;86.50;100479.00;4964924;28;19929;-81
2022/02/12 15:16:05;;;;;;;;;;;;;;;2.61;86.55;100471.16;4964968;28;19969;-81
2022/02/12 15:18:30;;;;;;;;;;;;;;;2.61;85.70;100468.53;4966461;28;19928;-81
2022/02/12 15:20:55;;;;;;;;;;;;;;;2.62;85.57;100464.19;4965890;28;19922;-82
2022/02/12 15:23:21;;;;;;;;;;;;;;;2.60;85.08;100465.91;4965998;28;19933;-82
2022/02/12 15:25:47;;;;;;;;;;;;;;;2.57;85.00;100461.59;4966424;28;20401;-81
2022/02/12 15:28:12;;;;;;;;;;;;;;;2.58;84.59;100458.06;4966156;28;19922;-82
2022/02/12 15:30:39;;;;;;;;;;;;;;;2.46;84.39;100458.09;4948483;28;19918;-82
2022/02/12 15:33:05;;;;;;;;;;;;;;;2.49;84.52;100453.72;4963991;28;19958;-82
2022/02/12 15:35:30;;;;;;;;;;;;;;;2.43;84.13;100451.09;4964772;28;19934;-82
2022/02/12 15:37:55;;;;;;;;;;;;;;;2.43;84.03;100450.22;4961277;28;20113;-83
2022/02/12 15:40:23;;;;;;;;;;;;;;;2.36;84.03;100445.00;4960205;28;19930;-82
2022/02/12 15:42:48;;;;;;;;;;;;;;;2.34;83.86;100444.09;4965067;28;19918;-82
2022/02/12 15:45:14;;;;;;;;;;;;;;;2.34;83.75;100444.09;4964169;28;20017;-82
2022/02/12 15:47:39;;;;;;;;;;;;;;;2.31;83.60;100445.84;4963163;28;20278;-82
2022/02/12 15:50:04;;;;;;;;;;;;;;;2.39;83.61;100444.09;4961080;28;19985;-82
2022/02/12 15:52:30;;;;;;;;;;;;;;;2.32;83.30;100437.13;4960564;28;20471;-82
2022/02/12 15:54:55;;;;;;;;;;;;;;;2.33;83.11;100439.75;4958581;28;19938;-82
2022/02/12 15:57:20;;;;;;;;;;;;;;;2.30;82.79;100442.38;4963220;28;20100;-82
2022/02/12 15:59:46;;;;;;;;;;;;;;;2.31;82.86;100444.13;4963822;28;20286;-81
2022/02/12 16:02:11;;;;;;;;;;;;;;;2.25;82.62;100431.03;4961683;28;19927;-81
2022/02/12 16:04:37;;;;;;;;;;;;;;;2.28;82.54;100436.28;4962014;28;19958;-82
2022/02/12 16:07:04;;;;;;;;;;;;;;;2.27;82.53;100434.50;4962142;28;20136;-82
2022/02/12 16:09:30;;;;;;;;;;;;;;;2.30;82.44;100433.66;4949237;28;19926;-82
2022/02/12 16:11:55;;;;;;;;;;;;;;;2.23;82.20;100429.28;4956206;28;19926;-82
2022/02/12 16:14:20;;;;;;;;;;;;;;;2.18;82.26;100429.25;4960433;28;20448;-82
2022/02/12 16:16:46;;;;;;;;;;;;;;;2.24;82.44;100426.66;4963749;28;19922;-81
2022/02/12 16:19:12;;;;;;;;;;;;;;;2.21;82.22;100431.03;4963416;28;20320;-81
2022/02/12 16:21:37;;;;;;;;;;;;;;;2.20;82.20;100421.41;4960921;28;20288;-82
2022/02/12 16:24:03;;;;;;;;;;;;;;;2.23;82.13;100422.28;4962724;28;20469;-82
2022/02/12 16:26:29;;;;;;;;;;;;;;;2.14;82.03;100409.22;4963124;28;19918;-82
2022/02/12 16:28:55;;;;;;;;;;;;;;;2.16;81.95;100415.31;4946361;28;19922;-82
2022/02/12 16:31:20;;;;;;;;;;;;;;;2.15;82.29;100413.56;4958012;28;19930;-82
2022/02/12 16:33:45;;;;;;;;;;;;;;;2.09;81.95;100411.81;4901581;28;1796501;-82
2022/02/12 16:36:10;;;;;;;;;;;;;;;2.11;82.16;100414.44;4947045;28;19936;-82
2022/02/12 16:38:36;;;;;;;;;;;;;;;2.11;81.77;100409.22;4946766;28;20009;-82
2022/02/12 16:41:01;;;;;;;;;;;;;;;2.12;81.70;100410.94;4963940;28;19925;-82
2022/02/12 16:43:26;;;;;;;;;;;;;;;2.07;81.61;100408.31;4964737;28;19922;-82
2022/02/12 16:45:52;;;;;;;;;;;;;;;2.13;81.55;100415.31;4964934;28;20429;-82
2022/02/12 16:48:17;;;;;;;;;;;;;;;2.05;81.61;100417.03;4946172;28;20416;-82
2022/02/12 16:50:43;;;;;;;;;;;;;;;2.03;81.33;100419.66;4964305;28;20025;-82
2022/02/12 16:53:08;;;;;;;;;;;;;;;2.05;81.13;100415.28;4964241;28;20396;-82
2022/02/12 16:55:35;;;;;;;;;;;;;;;2.00;81.17;100417.91;4963166;28;19918;-82
2022/02/12 16:58:00;;;;;;;;;;;;;;;1.88;81.03;100417.84;4960939;28;19914;-83
2022/02/12 17:00:28;;;;;;;;;;;;;;;2.05;81.06;100415.28;4960324;28;20498;-82
2022/02/12 17:02:53;;;;;;;;;;;;;;;1.97;80.88;100415.28;4956228;28;19918;-82
2022/02/12 17:05:22;;;;;;;;;;;;;;;1.92;80.86;100414.41;4960339;28;20010;-83
2022/02/12 17:07:48;;;;;;;;;;;;;;;1.95;80.73;100417.03;4961963;28;20267;-82
2022/02/12 17:10:14;;;;;;;;;;;;;;;2.43;80.74;100418.84;4963782;28;19925;-81
2022/02/12 17:12:39;;;;;;;;;;;;;;;2.64;80.69;100410.13;4964545;28;20818;-84
2022/02/12 17:15:07;;;;;;;;;;;;;;;2.05;82.13;100410.06;4944257;28;19919;-83
2022/02/12 17:17:33;;;;;;;;;;;;;;;1.87;82.79;100417.84;4961848;28;19926;-83
2022/02/12 17:19:58;;;;;;;;;;;;;;;1.77;82.95;100417.84;4964299;28;20357;-84
2022/02/12 17:22:23;;;;;;;;;;;;;;;1.73;82.86;100425.66;4959403;28;19918;-83
2022/02/12 17:24:48;;;;;;;;;;;;;;;1.73;82.67;100426.53;4961645;28;19933;-84
2022/02/12 17:27:14;;;;;;;;;;;;;;;1.68;82.60;100430.88;4963623;28;19924;-83
2022/02/12 17:29:39;;;;;;;;;;;;;;;1.69;82.34;100431.75;4962330;28;20388;-84
2022/02/12 17:32:05;;;;;;;;;;;;;;;1.69;82.30;100431.75;4959231;28;20386;-82
2022/02/12 17:34:31;;;;;;;;;;;;;;;1.64;82.08;100418.66;4961260;28;19926;-83
2022/02/12 17:36:57;;;;;;;;;;;;;;;1.59;81.98;100416.03;4944148;28;20290;-82
2022/02/12 17:39:22;;;;;;;;;;;;;;;1.59;81.91;100409.94;4959623;28;19927;-83
2022/02/12 17:41:47;;;;;;;;;;;;;;;1.61;81.75;100398.63;4942217;28;19929;-83
2022/02/12 17:44:13;;;;;;;;;;;;;;;1.59;81.60;100399.50;4947275;28;19930;-84
2022/02/12 17:46:42;;;;;;;;;;;;;;;1.60;81.77;100398.63;4959621;28;20319;-82
2022/02/12 17:49:07;;;;;;;;;;;;;;;1.66;81.54;100398.66;4958011;28;19929;-83
2022/02/12 17:51:33;;;;;;;;;;;;;;;1.58;81.08;100393.41;4960012;28;19926;-84
2022/02/12 17:53:58;;;;;;;;;;;;;;;1.62;81.18;100389.06;4963668;28;19918;-84